createdAt,value
2022-12-08T00:01:19.806Z,90.36
2022-12-08T00:03:47.558Z,90.42
2022-12-08T00:06:42.623Z,89.73
2022-12-08T00:09:24.287Z,89.16
2022-12-08T00:12:02.318Z,89.54
2022-12-08T00:14:35.355Z,88.79
2022-12-08T00:17:03.463Z,87.98
2022-12-08T00:19:31.452Z,87.48
2022-12-08T00:21:59.205Z,88.06
2022-12-08T00:24:31.422Z,88.18
2022-12-08T00:26:58.846Z,89.13
2022-12-08T00:29:25.936Z,88.87
2022-12-08T00:31:53.194Z,89.05
2022-12-08T00:34:21.103Z,89.54
2022-12-08T00:36:48.241Z,89.70
2022-12-08T00:39:16.450Z,89.65
2022-12-08T00:42:03.218Z,89.81
2022-12-08T00:44:30.336Z,89.74
2022-12-08T00:46:57.741Z,89.87
2022-12-08T00:49:24.966Z,90.35
2022-12-08T00:51:52.378Z,90.00
2022-12-08T00:54:20.909Z,89.79
2022-12-08T00:56:48.081Z,89.98
2022-12-08T00:59:15.316Z,89.38
2022-12-08T01:01:44.501Z,89.31
2022-12-08T01:04:15.576Z,89.18
2022-12-08T01:06:44.128Z,88.62
2022-12-08T01:09:13.024Z,88.05
2022-12-08T01:11:40.123Z,87.52
2022-12-08T01:14:07.579Z,87.58
2022-12-08T01:16:36.048Z,87.70
2022-12-08T01:19:03.927Z,88.63
2022-12-08T01:21:31.270Z,88.95
2022-12-08T01:24:00.315Z,89.21
2022-12-08T01:26:27.554Z,89.54
2022-12-08T01:28:54.992Z,89.34
2022-12-08T01:31:22.788Z,89.36
2022-12-08T01:33:50.455Z,89.47
2022-12-08T01:36:26.167Z,89.25
2022-12-08T01:38:54.134Z,89.30
2022-12-08T01:41:24.006Z,89.42
2022-12-08T01:43:56.787Z,89.31
2022-12-08T01:46:25.020Z,89.04
2022-12-08T01:48:55.869Z,89.18
2022-12-08T01:51:23.159Z,89.54
2022-12-08T01:53:50.777Z,89.46
2022-12-08T01:56:28.509Z,89.46
2022-12-08T01:58:55.997Z,89.40
2022-12-08T02:01:23.863Z,89.58
2022-12-08T02:04:02.477Z,89.45
2022-12-08T02:06:33.359Z,89.30
2022-12-08T02:09:01.577Z,90.04
2022-12-08T02:11:29.526Z,89.93
2022-12-08T02:13:57.885Z,90.16
2022-12-08T02:16:31.337Z,90.20
2022-12-08T02:19:30.313Z,90.66
2022-12-08T02:21:57.059Z,90.24
2022-12-08T02:24:41.343Z,90.00
2022-12-08T02:27:18.525Z,90.22
2022-12-08T02:30:08.307Z,90.47
2022-12-08T02:33:00.417Z,90.63
2022-12-08T02:35:46.436Z,90.35
2022-12-08T02:38:35.117Z,90.94
2022-12-08T02:41:08.611Z,90.82
2022-12-08T02:43:41.994Z,91.08
2022-12-08T02:46:12.132Z,90.80
2022-12-08T02:48:39.550Z,90.69
2022-12-08T02:51:06.602Z,90.71
2022-12-08T02:53:34.862Z,90.82
2022-12-08T02:56:25.428Z,91.05
2022-12-08T02:59:31.156Z,90.61
2022-12-08T03:02:04.505Z,91.12
2022-12-08T03:04:48.788Z,91.93
2022-12-08T03:07:22.422Z,91.60
2022-12-08T03:10:00.243Z,90.94
2022-12-08T03:12:48.839Z,90.82
2022-12-08T03:15:19.113Z,91.14
2022-12-08T03:17:50.192Z,90.34
2022-12-08T03:20:21.171Z,90.24
2022-12-08T03:22:49.793Z,90.60
2022-12-08T03:25:21.575Z,90.76
2022-12-08T03:27:49.306Z,90.91
2022-12-08T03:30:16.570Z,91.23
2022-12-08T03:32:49.409Z,91.09
2022-12-08T03:35:23.020Z,91.76
2022-12-08T03:37:50.467Z,91.19
2022-12-08T03:40:19.789Z,90.98
2022-12-08T03:42:46.906Z,91.10
2022-12-08T03:45:13.973Z,90.65
2022-12-08T03:47:41.302Z,91.03
2022-12-08T03:50:08.689Z,90.79
2022-12-08T03:52:35.761Z,91.03
2022-12-08T03:55:03.349Z,90.85
2022-12-08T03:57:30.421Z,89.86
2022-12-08T03:59:57.553Z,89.25
2022-12-08T04:02:25.026Z,89.52
2022-12-08T04:04:52.433Z,89.72
2022-12-08T04:07:19.510Z,89.06
2022-12-08T04:09:46.572Z,88.82
2022-12-08T04:12:13.930Z,89.71
2022-12-08T04:14:41.020Z,89.64
2022-12-08T04:17:08.066Z,89.46
2022-12-08T04:19:35.453Z,90.00
2022-12-08T04:22:02.563Z,90.53
2022-12-08T04:24:29.601Z,90.45
2022-12-08T04:26:56.990Z,90.44
2022-12-08T04:29:24.065Z,90.31
2022-12-08T04:31:51.181Z,90.47
2022-12-08T04:34:18.589Z,90.50
2022-12-08T04:36:45.647Z,90.82
2022-12-08T04:39:12.803Z,91.01
2022-12-08T04:41:40.170Z,90.94
2022-12-08T04:44:07.244Z,90.80
2022-12-08T04:46:35.189Z,91.14
2022-12-08T04:49:05.226Z,91.43
2022-12-08T04:51:32.283Z,91.47
2022-12-08T04:53:59.340Z,91.22
2022-12-08T04:56:26.691Z,91.25
2022-12-08T04:58:53.750Z,91.31
2022-12-08T05:01:20.926Z,91.44
2022-12-08T05:03:48.374Z,91.58
2022-12-08T05:06:15.512Z,94.92
2022-12-08T05:08:43.416Z,92.98
2022-12-08T05:11:11.782Z,100.00
2022-12-08T05:13:38.928Z,83.98
2022-12-08T05:16:11.741Z,81.39
2022-12-08T05:18:40.421Z,83.69
2022-12-08T05:21:08.231Z,85.56
2022-12-08T05:23:35.459Z,85.06
2022-12-08T05:26:02.825Z,85.87
2022-12-08T05:28:41.300Z,87.36
2022-12-08T05:31:10.176Z,86.84
2022-12-08T05:33:37.311Z,88.09
2022-12-08T05:36:04.528Z,88.85
2022-12-08T05:38:31.858Z,89.56
2022-12-08T05:40:58.938Z,89.88
2022-12-08T05:43:27.054Z,90.46
2022-12-08T05:45:54.637Z,90.71
2022-12-08T05:48:21.834Z,90.80
2022-12-08T05:50:51.365Z,90.79
2022-12-08T05:53:20.129Z,91.00
2022-12-08T05:55:47.472Z,90.95
2022-12-08T05:58:17.450Z,92.45
2022-12-08T06:00:46.604Z,90.04
2022-12-08T06:03:15.303Z,90.11
2022-12-08T06:05:43.624Z,90.37
2022-12-08T06:08:10.879Z,90.59
2022-12-08T06:10:39.900Z,90.19
2022-12-08T06:13:07.029Z,90.42
2022-12-08T06:15:35.344Z,90.42
2022-12-08T06:18:02.734Z,89.95
2022-12-08T06:20:29.814Z,90.40
2022-12-08T06:22:57.334Z,90.35
2022-12-08T06:25:25.124Z,90.50
2022-12-08T06:27:52.462Z,90.83
2022-12-08T06:30:19.538Z,90.66
2022-12-08T06:32:47.120Z,90.86
2022-12-08T06:35:14.185Z,91.58
2022-12-08T06:37:41.252Z,91.73
2022-12-08T06:40:09.042Z,90.19
2022-12-08T06:42:45.125Z,90.25
2022-12-08T06:45:17.101Z,89.98
2022-12-08T06:47:44.231Z,89.59
2022-12-08T06:50:12.798Z,89.60
2022-12-08T06:52:51.781Z,90.04
2022-12-08T06:55:57.387Z,90.97
2022-12-08T06:58:13.594Z,89.66
2022-12-08T07:00:41.948Z,89.96
2022-12-08T07:03:10.331Z,89.52
2022-12-08T07:05:38.160Z,88.53
2022-12-08T07:08:06.961Z,89.33
2022-12-08T07:10:34.647Z,89.43
2022-12-08T07:13:02.418Z,89.51
2022-12-08T07:15:29.494Z,90.10
2022-12-08T07:18:00.069Z,88.42
2022-12-08T07:20:29.254Z,88.53
2022-12-08T07:22:56.410Z,88.28
2022-12-08T07:25:23.805Z,88.39
2022-12-08T07:27:52.665Z,88.96
2022-12-08T07:30:19.872Z,89.17
2022-12-08T07:32:46.929Z,89.00
2022-12-08T07:35:14.320Z,89.34
2022-12-08T07:37:41.395Z,89.87
2022-12-08T07:40:09.798Z,89.36
2022-12-08T07:42:37.159Z,88.47
2022-12-08T07:45:04.540Z,87.62
2022-12-08T07:47:31.664Z,87.02
2022-12-08T07:49:58.992Z,86.56
2022-12-08T07:52:26.054Z,86.34
2022-12-08T07:54:53.158Z,85.20
2022-12-08T07:57:20.549Z,85.60
2022-12-08T07:59:47.625Z,84.00
2022-12-08T08:02:24.818Z,84.41
2022-12-08T08:04:53.425Z,83.48
2022-12-08T08:07:20.706Z,83.17
2022-12-08T08:09:47.752Z,82.74
2022-12-08T08:12:30.679Z,84.60
2022-12-08T08:14:59.754Z,84.08
2022-12-08T08:17:28.016Z,81.79
2022-12-08T08:19:55.256Z,81.32
2022-12-08T08:22:22.338Z,80.08
2022-12-08T08:24:49.775Z,79.30
2022-12-08T08:27:16.995Z,81.01
2022-12-08T08:29:44.268Z,81.57
2022-12-08T08:32:11.649Z,80.74
2022-12-08T08:34:38.848Z,81.23
2022-12-08T08:37:05.981Z,82.17
2022-12-08T08:39:33.377Z,80.36
2022-12-08T08:42:00.470Z,79.79
2022-12-08T08:44:27.782Z,76.96
2022-12-08T08:46:55.261Z,77.72
2022-12-08T08:49:22.457Z,81.75
2022-12-08T08:51:49.658Z,81.02
2022-12-08T08:54:17.030Z,82.50
2022-12-08T08:56:44.143Z,80.33
2022-12-08T08:59:11.378Z,80.15
2022-12-08T09:01:38.830Z,79.20
2022-12-08T09:04:06.220Z,79.54
2022-12-08T09:06:33.389Z,79.18
2022-12-08T09:09:00.821Z,81.59
2022-12-08T09:11:27.925Z,79.96
2022-12-08T09:13:55.253Z,79.31
2022-12-08T09:16:23.119Z,80.23
2022-12-08T09:18:50.900Z,81.99
2022-12-08T09:21:23.726Z,81.46
2022-12-08T09:23:52.994Z,80.07
2022-12-08T09:26:22.499Z,77.98
2022-12-08T09:28:53.944Z,79.62
2022-12-08T09:31:22.512Z,78.96
2022-12-08T09:33:53.195Z,78.60
2022-12-08T09:36:20.520Z,78.72
2022-12-08T09:38:54.690Z,76.39
2022-12-08T09:41:41.812Z,78.86
2022-12-08T09:44:50.320Z,77.11
2022-12-08T09:47:20.537Z,77.95
2022-12-08T09:50:00.533Z,77.90
2022-12-08T09:52:34.842Z,75.61
2022-12-08T09:55:06.568Z,73.81
2022-12-08T09:57:33.778Z,73.88
2022-12-08T10:00:05.524Z,72.89
2022-12-08T10:02:33.655Z,72.41
2022-12-08T10:05:00.910Z,72.98
2022-12-08T10:08:03.337Z,74.53
2022-12-08T10:10:43.102Z,72.33
2022-12-08T10:13:46.584Z,71.67
2022-12-08T10:16:30.067Z,72.97
2022-12-08T10:19:11.452Z,71.79
2022-12-08T10:21:40.740Z,72.96
2022-12-08T10:24:39.469Z,70.99
2022-12-08T10:27:11.562Z,71.08
2022-12-08T10:29:40.346Z,70.37
2022-12-08T10:32:19.338Z,72.17
2022-12-08T10:35:22.386Z,70.61
2022-12-08T10:38:01.564Z,70.41
2022-12-08T10:40:36.898Z,70.93
2022-12-08T10:43:14.942Z,70.67
2022-12-08T10:45:45.032Z,73.22
2022-12-08T10:48:21.858Z,70.20
2022-12-08T10:50:56.446Z,70.17
2022-12-08T10:53:29.644Z,68.05
2022-12-08T10:56:02.909Z,72.03
2022-12-08T10:58:46.100Z,68.71
2022-12-08T11:01:17.839Z,73.56
2022-12-08T11:03:46.576Z,69.78
2022-12-08T11:06:37.243Z,73.26
2022-12-08T11:09:24.769Z,75.01
2022-12-08T11:11:53.871Z,76.22
2022-12-08T11:14:34.857Z,70.97
2022-12-08T11:17:08.093Z,72.52
2022-12-08T11:19:39.836Z,76.83
2022-12-08T11:22:24.293Z,74.54
2022-12-08T11:25:08.389Z,70.51
2022-12-08T11:27:36.844Z,70.91
2022-12-08T11:30:15.008Z,69.22
2022-12-08T11:32:44.843Z,73.44
2022-12-08T11:35:26.815Z,74.38
2022-12-08T11:38:03.334Z,71.82
2022-12-08T11:40:44.192Z,66.60
2022-12-08T11:43:46.189Z,68.15
2022-12-08T11:46:18.807Z,69.91
2022-12-08T11:49:06.275Z,72.32
2022-12-08T11:51:42.909Z,78.25
2022-12-08T11:54:22.169Z,69.04
2022-12-08T11:56:52.725Z,66.97
2022-12-08T11:59:41.801Z,72.33
2022-12-08T12:02:15.315Z,77.66
2022-12-08T12:05:10.759Z,73.64
2022-12-08T12:07:44.562Z,71.53
2022-12-08T12:10:18.027Z,72.33
2022-12-08T12:13:16.017Z,70.02
2022-12-08T12:16:17.096Z,72.64
2022-12-08T12:18:52.035Z,70.09
2022-12-08T12:21:22.650Z,70.01
2022-12-08T12:23:52.782Z,69.75
2022-12-08T12:26:22.716Z,68.20
2022-12-08T12:28:52.657Z,68.23
2022-12-08T12:31:31.837Z,69.27
2022-12-08T12:34:16.845Z,69.38
2022-12-08T12:36:56.803Z,69.04
2022-12-08T12:39:32.097Z,71.36
2022-12-08T12:42:03.951Z,70.13
2022-12-08T12:44:33.963Z,73.05
2022-12-08T12:47:03.150Z,74.58
2022-12-08T12:49:39.460Z,69.24
2022-12-08T12:52:15.759Z,72.75
2022-12-08T12:54:43.698Z,72.56
2022-12-08T12:57:10.959Z,69.37
2022-12-08T12:59:47.823Z,69.83
2022-12-08T13:02:32.933Z,68.94
2022-12-08T13:05:02.754Z,71.85
2022-12-08T13:07:33.478Z,73.76
2022-12-08T13:10:09.675Z,71.39
2022-12-08T13:12:37.074Z,70.95
2022-12-08T13:15:06.439Z,72.05
2022-12-08T13:17:36.487Z,68.82
2022-12-08T13:20:06.937Z,71.69
2022-12-08T13:22:50.134Z,75.87
2022-12-08T13:25:46.444Z,68.98
2022-12-08T13:28:16.187Z,69.95
2022-12-08T13:30:50.681Z,70.43
2022-12-08T13:33:39.692Z,70.86
2022-12-08T13:36:23.652Z,74.23
2022-12-08T13:38:55.284Z,70.31
2022-12-08T13:41:29.959Z,70.18
2022-12-08T13:47:32.402Z,74.75
2022-12-08T13:59:07.369Z,72.75
2022-12-08T14:01:44.947Z,68.41
2022-12-08T14:04:42.589Z,74.65
2022-12-08T14:07:11.371Z,76.57
2022-12-08T14:09:39.753Z,70.75
2022-12-08T14:12:13.188Z,69.69
2022-12-08T14:17:29.525Z,67.91
2022-12-08T14:20:06.853Z,67.01
2022-12-08T14:22:38.890Z,67.69
2022-12-08T14:25:10.195Z,73.64
2022-12-08T14:27:37.939Z,72.08
2022-12-08T14:30:14.304Z,75.41
2022-12-08T14:32:48.537Z,69.72
2022-12-08T14:35:20.739Z,66.21
2022-12-08T14:37:49.380Z,68.28
2022-12-08T14:40:37.537Z,67.25
2022-12-08T14:43:07.732Z,67.73
2022-12-08T14:45:35.094Z,69.83
2022-12-08T14:48:27.613Z,69.04
2022-12-08T14:51:05.991Z,71.95
2022-12-08T14:53:39.745Z,68.46
2022-12-08T14:56:09.601Z,69.19
2022-12-08T14:58:36.733Z,70.21
2022-12-08T15:01:06.554Z,72.46
2022-12-08T15:03:34.377Z,71.32
2022-12-08T15:06:05.883Z,70.03
2022-12-08T15:08:33.437Z,70.32
2022-12-08T15:11:21.708Z,69.94
2022-12-08T15:13:51.239Z,70.66
2022-12-08T15:16:26.231Z,71.88
2022-12-08T15:19:16.957Z,72.11
2022-12-08T15:21:45.423Z,69.99
2022-12-08T15:24:13.491Z,72.45
2022-12-08T15:26:50.750Z,70.35
2022-12-08T15:29:27.402Z,70.16
2022-12-08T15:31:57.361Z,70.00
2022-12-08T15:34:25.106Z,71.01
2022-12-08T15:36:53.903Z,74.15
2022-12-08T15:39:39.305Z,70.94
2022-12-08T15:42:11.599Z,73.12
2022-12-08T15:44:39.122Z,70.31
2022-12-08T15:47:16.445Z,71.42
2022-12-08T15:49:44.153Z,71.87
2022-12-08T15:52:17.023Z,69.89
2022-12-08T15:54:44.106Z,72.37
2022-12-08T15:57:30.022Z,73.54
2022-12-08T16:00:19.046Z,73.83
2022-12-08T16:05:50.025Z,78.76
2022-12-08T16:08:47.544Z,78.10
2022-12-08T16:12:04.757Z,80.76
2022-12-08T16:15:38.753Z,77.69
2022-12-08T16:17:14.542Z,73.43
2022-12-08T16:19:42.084Z,74.89
2022-12-08T16:22:51.656Z,72.40
2022-12-08T16:25:17.769Z,73.70
2022-12-08T16:28:17.247Z,76.00
2022-12-08T16:30:34.174Z,74.35
2022-12-08T16:33:01.598Z,74.06
2022-12-08T16:35:30.281Z,77.37
2022-12-08T16:37:58.059Z,75.09
2022-12-08T16:40:28.265Z,76.06
2022-12-08T16:42:55.309Z,77.05
2022-12-08T16:45:25.267Z,76.61
2022-12-08T16:47:57.163Z,76.90
2022-12-08T16:50:32.838Z,76.83
2022-12-08T16:53:05.486Z,77.03
2022-12-08T16:55:33.665Z,78.32
2022-12-08T16:58:01.075Z,78.55
2022-12-08T17:00:29.347Z,79.17
2022-12-08T17:02:56.923Z,80.88
2022-12-08T17:05:24.939Z,78.75
2022-12-08T17:07:53.011Z,77.71
2022-12-08T17:10:23.593Z,77.37
2022-12-08T17:12:51.170Z,77.87
2022-12-08T17:15:21.988Z,79.70
2022-12-08T17:17:49.591Z,80.45
2022-12-08T17:20:19.937Z,81.14
2022-12-08T17:22:47.189Z,80.88
2022-12-08T17:25:14.754Z,80.55
2022-12-08T17:27:42.386Z,79.33
2022-12-08T17:30:12.534Z,79.86
2022-12-08T17:32:39.915Z,79.33
2022-12-08T17:35:07.785Z,79.07
2022-12-08T17:37:35.320Z,79.47
2022-12-08T17:40:03.039Z,79.13
2022-12-08T17:42:30.522Z,80.14
2022-12-08T17:44:57.590Z,80.26
2022-12-08T17:47:24.957Z,84.04
2022-12-08T17:49:52.170Z,78.91
2022-12-08T17:52:19.227Z,78.88
2022-12-08T17:54:46.607Z,77.87
2022-12-08T17:57:13.769Z,78.16
2022-12-08T17:59:40.838Z,78.56
2022-12-08T18:02:12.084Z,77.95
2022-12-08T18:04:39.613Z,77.65
2022-12-08T18:07:06.660Z,77.70
2022-12-08T18:09:33.953Z,79.07
2022-12-08T18:12:01.370Z,78.64
2022-12-08T18:14:28.514Z,78.93
2022-12-08T18:16:55.678Z,79.75
2022-12-08T18:19:23.229Z,79.27
2022-12-08T18:21:50.410Z,79.63
2022-12-08T18:24:22.234Z,79.39
2022-12-08T18:26:52.116Z,79.97
2022-12-08T18:29:20.564Z,79.31
2022-12-08T18:31:47.891Z,79.42
2022-12-08T18:34:15.261Z,79.12
2022-12-08T18:36:42.378Z,78.14
2022-12-08T18:39:29.874Z,77.41
2022-12-08T18:41:58.480Z,77.30
2022-12-08T18:44:25.641Z,77.67
2022-12-08T18:46:52.709Z,78.45
2022-12-08T18:49:20.467Z,79.06
2022-12-08T18:51:47.791Z,79.17
2022-12-08T18:54:14.834Z,78.06
2022-12-08T18:56:42.183Z,78.90
2022-12-08T18:59:11.461Z,77.95
2022-12-08T19:01:41.304Z,77.57
2022-12-08T19:04:27.924Z,77.58
2022-12-08T19:06:56.432Z,77.40
2022-12-08T19:09:26.031Z,77.73
2022-12-08T19:11:53.160Z,78.39
2022-12-08T19:14:25.856Z,77.92
2022-12-08T19:16:55.119Z,78.03
2022-12-08T19:19:22.203Z,77.19
2022-12-08T19:21:49.559Z,76.99
2022-12-08T19:24:16.916Z,77.24
2022-12-08T19:26:44.206Z,77.44
2022-12-08T19:29:11.545Z,77.43
2022-12-08T19:31:39.276Z,76.25
2022-12-08T19:34:06.807Z,76.75
2022-12-08T19:36:35.672Z,77.17
2022-12-08T19:39:22.696Z,77.64
2022-12-08T19:42:09.200Z,77.43
2022-12-08T19:44:54.723Z,77.06
2022-12-08T19:47:26.697Z,76.50
2022-12-08T19:49:55.105Z,76.76
2022-12-08T19:52:22.387Z,76.41
2022-12-08T19:54:51.417Z,76.62
2022-12-08T19:57:20.466Z,77.11
2022-12-08T19:59:50.464Z,78.29
2022-12-08T20:02:22.169Z,76.66
2022-12-08T20:04:49.671Z,77.07
2022-12-08T20:07:16.744Z,78.14
2022-12-08T20:09:43.832Z,78.07
2022-12-08T20:12:11.181Z,77.91
2022-12-08T20:14:42.706Z,77.66
2022-12-08T20:17:13.158Z,78.21
2022-12-08T20:19:40.371Z,79.14
2022-12-08T20:22:07.452Z,78.31
2022-12-08T20:24:35.860Z,78.80
2022-12-08T20:27:02.969Z,78.25
2022-12-08T20:29:30.033Z,78.77
2022-12-08T20:31:57.467Z,79.18
2022-12-08T20:34:24.684Z,78.61
2022-12-08T20:36:51.874Z,79.50
2022-12-08T20:39:19.303Z,79.33
2022-12-08T20:41:46.734Z,79.86
2022-12-08T20:44:13.882Z,79.50
2022-12-08T20:46:46.270Z,79.39
2022-12-08T20:49:16.384Z,79.81
2022-12-08T20:51:44.497Z,79.72
2022-12-08T20:54:11.942Z,79.88
2022-12-08T20:56:44.755Z,80.57
2022-12-08T20:59:18.121Z,80.36
2022-12-08T21:01:45.509Z,80.38
2022-12-08T21:04:13.368Z,80.87
2022-12-08T21:06:40.931Z,81.67
2022-12-08T21:09:08.794Z,81.38
2022-12-08T21:11:36.261Z,81.38
2022-12-08T21:14:03.869Z,81.32
2022-12-08T21:16:31.091Z,81.28
2022-12-08T21:18:58.314Z,80.98
2022-12-08T21:21:25.726Z,81.23
2022-12-08T21:23:53.567Z,81.05
2022-12-08T21:26:22.057Z,81.32
2022-12-08T21:28:49.484Z,81.47
2022-12-08T21:31:19.111Z,81.67
2022-12-08T21:33:46.454Z,81.70
2022-12-08T21:36:16.810Z,81.34
2022-12-08T21:38:44.698Z,81.44
2022-12-08T21:41:14.491Z,81.85
2022-12-08T21:43:42.495Z,81.87
2022-12-08T21:46:17.128Z,81.72
2022-12-08T21:48:44.713Z,81.91
2022-12-08T21:51:11.999Z,81.92
2022-12-08T21:53:39.289Z,81.48
2022-12-08T21:56:10.006Z,81.83
2022-12-08T21:58:39.509Z,82.09
2022-12-08T22:01:08.602Z,82.03
2022-12-08T22:03:37.662Z,82.32
2022-12-08T22:06:09.882Z,82.42
2022-12-08T22:08:37.433Z,83.30
2022-12-08T22:11:05.212Z,82.91
2022-12-08T22:13:36.651Z,84.55
2022-12-08T22:16:08.613Z,85.67
2022-12-08T22:18:36.536Z,86.09
2022-12-08T22:21:12.135Z,87.16
2022-12-08T22:23:39.605Z,87.70
2022-12-08T22:26:08.366Z,87.04
2022-12-08T22:28:41.162Z,86.27
2022-12-08T22:31:22.300Z,85.75
2022-12-08T22:33:50.574Z,85.94
2022-12-08T22:36:24.244Z,85.61
2022-12-08T22:38:51.925Z,85.92
2022-12-08T22:41:19.864Z,85.81
2022-12-08T22:43:48.054Z,85.68
2022-12-08T22:46:20.813Z,84.67
2022-12-08T22:48:48.744Z,84.36
2022-12-08T22:51:16.131Z,84.62
2022-12-08T22:53:43.887Z,84.99
2022-12-08T22:56:12.692Z,84.63
2022-12-08T22:58:40.637Z,84.29
2022-12-08T23:01:08.507Z,84.12
2022-12-08T23:03:36.230Z,84.48
2022-12-08T23:06:12.391Z,84.44
2022-12-08T23:08:40.095Z,84.92
2022-12-08T23:11:07.293Z,85.39
2022-12-08T23:13:34.605Z,86.54
2022-12-08T23:16:01.984Z,86.36
2022-12-08T23:18:29.048Z,86.37
2022-12-08T23:20:56.259Z,85.86
2022-12-08T23:23:23.615Z,85.92
2022-12-08T23:25:50.666Z,85.57
2022-12-08T23:28:17.724Z,85.36
2022-12-08T23:30:45.232Z,85.57
2022-12-08T23:33:12.656Z,85.77
2022-12-08T23:35:39.827Z,85.99
2022-12-08T23:38:07.171Z,85.70
2022-12-08T23:40:34.674Z,85.50
2022-12-08T23:43:02.033Z,85.27
2022-12-08T23:45:29.662Z,85.27
2022-12-08T23:47:56.860Z,84.58
2022-12-08T23:50:24.030Z,84.96
2022-12-08T23:52:51.459Z,85.54
2022-12-08T23:55:18.499Z,85.44
2022-12-08T23:57:45.587Z,85.52
